createdAt,value
2018-05-04T06:32:19.080Z,4844.00
2018-05-04T06:33:19.078Z,4888.00
2018-05-04T06:34:19.075Z,4836.00
2018-05-04T06:35:19.071Z,4864.00
2018-05-04T06:36:19.069Z,4880.00
2018-05-04T06:37:19.068Z,4852.00
2018-05-04T06:38:19.066Z,4892.00
2018-05-04T06:39:19.064Z,4916.00
2018-05-04T06:40:19.062Z,4940.00
2018-05-04T06:41:19.073Z,4968.00
2018-05-04T06:42:19.059Z,4996.00
2018-05-04T06:43:19.057Z,5004.00
2018-05-04T06:44:19.058Z,5052.00
2018-05-04T06:45:19.056Z,5064.00
2018-05-04T06:46:19.056Z,5116.00
2018-05-04T06:47:19.056Z,5128.00
2018-05-04T06:48:19.054Z,5140.00
2018-05-04T06:49:19.053Z,5164.00
2018-05-04T06:50:19.054Z,5180.00
2018-05-04T06:51:19.052Z,5204.00
2018-05-04T06:52:19.054Z,5244.00
2018-05-04T06:53:19.126Z,5236.00
2018-05-04T06:54:19.056Z,5212.00
2018-05-04T06:55:19.051Z,5236.00
2018-05-04T06:56:19.051Z,5244.00
2018-05-04T06:57:19.051Z,5272.00
2018-05-04T06:58:19.051Z,5288.00
2018-05-04T06:59:19.096Z,5312.00
2018-05-04T07:00:19.051Z,5304.00
2018-05-04T07:01:19.052Z,5324.00
2018-05-04T07:02:19.052Z,5356.00
2018-05-04T07:03:19.053Z,5384.00
2018-05-04T07:04:19.051Z,5420.00
2018-05-04T07:05:19.053Z,5416.00
2018-05-04T07:06:19.053Z,5440.00
2018-05-04T07:07:19.053Z,5484.00
2018-05-04T07:08:19.053Z,5516.00
2018-05-04T07:09:19.053Z,5536.00
2018-05-04T07:10:19.090Z,5528.00
2018-05-04T07:11:19.054Z,5540.00
2018-05-04T07:12:19.064Z,5532.00
2018-05-04T07:13:19.057Z,5556.00
2018-05-04T07:14:19.056Z,5604.00
2018-05-04T07:15:19.056Z,5628.00
2018-05-04T07:16:19.057Z,5664.00
2018-05-04T07:17:19.057Z,5704.00
2018-05-04T07:18:19.059Z,5736.00
2018-05-04T07:19:19.058Z,5764.00
2018-05-04T07:20:19.059Z,5784.00
2018-05-04T07:21:19.060Z,5828.00
2018-05-04T07:22:19.064Z,5852.00
2018-05-04T07:23:19.064Z,5892.00
2018-05-04T07:24:19.062Z,5940.00
2018-05-04T07:25:19.062Z,5988.00
2018-05-04T07:26:19.064Z,6028.00
2018-05-04T07:27:19.065Z,6052.00
2018-05-04T07:28:19.065Z,6060.00
2018-05-04T07:29:19.068Z,6080.00
2018-05-04T07:30:19.069Z,6160.00
2018-05-04T07:31:19.068Z,6236.00
2018-05-04T07:32:19.068Z,6304.00
2018-05-04T07:33:19.071Z,6376.00
2018-05-04T07:34:19.072Z,6428.00
2018-05-04T07:35:19.074Z,6444.00
2018-05-04T07:36:19.099Z,6464.00
2018-05-04T07:37:19.075Z,6508.00
2018-05-04T07:38:19.077Z,6560.00
2018-05-04T07:39:19.080Z,6604.00
2018-05-04T07:40:19.080Z,6628.00
2018-05-04T07:41:19.080Z,6644.00
2018-05-04T07:42:19.155Z,6664.00
2018-05-04T07:43:19.082Z,6660.00
2018-05-04T07:44:19.085Z,6680.00
2018-05-04T07:45:19.085Z,6724.00
2018-05-04T07:46:19.088Z,6780.00
2018-05-04T07:47:19.089Z,6848.00
2018-05-04T07:48:19.091Z,6904.00
2018-05-04T07:49:19.092Z,6964.00
2018-05-04T07:50:19.097Z,7044.00
2018-05-04T07:51:19.096Z,7108.00
2018-05-04T07:52:19.098Z,7196.00
2018-05-04T07:53:19.100Z,7440.00
2018-05-04T07:54:19.102Z,22784.00
2018-05-04T07:55:19.172Z,49152.00
2018-05-04T07:56:19.106Z,72896.00
2018-05-04T07:57:19.109Z,84160.00
2018-05-04T07:58:19.111Z,85312.00
2018-05-04T07:59:19.113Z,87232.00
2018-05-04T08:00:19.117Z,85568.00
2018-05-04T08:01:19.123Z,84928.00
2018-05-04T08:02:19.127Z,84128.00
2018-05-04T08:03:19.131Z,84480.00
2018-05-04T08:04:19.139Z,85344.00
2018-05-04T08:05:19.145Z,83616.00
2018-05-04T08:06:19.151Z,83968.00
2018-05-04T08:07:19.156Z,84736.00
2018-05-04T08:08:19.166Z,84832.00
2018-05-04T08:09:19.174Z,84992.00
2018-05-04T08:10:19.185Z,83040.00
2018-05-04T08:11:19.195Z,81760.00
2018-05-04T08:12:19.203Z,84768.00
2018-05-04T08:13:19.213Z,86976.00
2018-05-04T08:14:19.223Z,85664.00
2018-05-04T08:15:19.235Z,87264.00
2018-05-04T08:16:19.246Z,88032.00
2018-05-04T08:17:19.258Z,87232.00
2018-05-04T08:18:19.270Z,86944.00
2018-05-04T08:19:19.284Z,88640.00
2018-05-04T08:20:19.295Z,88160.00
2018-05-04T08:21:19.310Z,85952.00
2018-05-04T08:22:19.323Z,83200.00
2018-05-04T08:23:19.334Z,81568.00
2018-05-04T08:24:19.349Z,81184.00
2018-05-04T08:25:19.364Z,84384.00
2018-05-04T08:26:19.379Z,85600.00
2018-05-04T08:27:19.437Z,85824.00
2018-05-04T08:28:19.407Z,85696.00
2018-05-04T08:29:19.422Z,85152.00
2018-05-04T08:30:19.437Z,83712.00
2018-05-04T08:31:19.452Z,82240.00
2018-05-04T08:32:19.467Z,80576.00
2018-05-04T08:33:19.486Z,83456.00
2018-05-04T08:34:19.499Z,81600.00
2018-05-04T08:35:19.536Z,80352.00
2018-05-04T08:36:19.531Z,79168.00
2018-05-04T08:37:19.548Z,78752.00
2018-05-04T08:38:19.565Z,80352.00
2018-05-04T08:39:19.581Z,81024.00
2018-05-04T08:40:19.597Z,81472.00
2018-05-04T08:41:19.646Z,83040.00
2018-05-04T08:42:19.631Z,81984.00
2018-05-04T08:43:19.646Z,80288.00
2018-05-04T08:44:19.665Z,80576.00
2018-05-04T08:45:19.682Z,83104.00
2018-05-04T08:46:19.700Z,82016.00
2018-05-04T08:47:19.715Z,81280.00
2018-05-04T08:48:19.808Z,80864.00
2018-05-04T08:49:19.751Z,80256.00
2018-05-04T08:50:19.768Z,80512.00
2018-05-04T08:51:19.789Z,80800.00
2018-05-04T08:52:19.803Z,82560.00
2018-05-04T08:53:19.821Z,77856.00
2018-05-04T08:54:19.881Z,73152.00
2018-05-04T08:55:19.856Z,75232.00
2018-05-04T08:56:19.875Z,79136.00
2018-05-04T08:57:19.964Z,79360.00
2018-05-04T08:58:19.910Z,79360.00
2018-05-04T08:59:19.927Z,76416.00
2018-05-04T09:00:20.039Z,78560.00
2018-05-04T09:01:19.964Z,80384.00
2018-05-04T09:02:20.008Z,78656.00
2018-05-04T09:03:20.002Z,78400.00
2018-05-04T09:04:20.019Z,77376.00
2018-05-04T09:05:20.105Z,77248.00
2018-05-04T09:06:20.055Z,74368.00
2018-05-04T09:07:20.074Z,75840.00
2018-05-04T09:08:20.093Z,78048.00
2018-05-04T09:09:20.112Z,77632.00
2018-05-04T09:10:20.131Z,71424.00
2018-05-04T09:11:20.149Z,71776.00
2018-05-04T09:12:20.168Z,70720.00
2018-05-04T09:13:20.187Z,64928.00
2018-05-04T09:14:20.205Z,70144.00
2018-05-04T09:15:20.224Z,69632.00
2018-05-04T09:16:20.242Z,65568.00
2018-05-04T09:17:20.260Z,69152.00
2018-05-04T09:18:20.279Z,73632.00
2018-05-04T09:19:20.300Z,59488.00
2018-05-04T09:20:20.316Z,36480.00
2018-05-04T09:21:20.335Z,27872.00
2018-05-04T09:22:20.355Z,27264.00
2018-05-04T09:23:20.374Z,26848.00
2018-05-04T09:24:20.392Z,26816.00
2018-05-04T09:25:20.420Z,26560.00
2018-05-04T09:26:20.430Z,26592.00
2018-05-04T09:27:20.449Z,26400.00
2018-05-04T09:28:20.468Z,26432.00
2018-05-04T09:29:20.487Z,26400.00
2018-05-04T09:30:20.506Z,26176.00
2018-05-04T09:31:20.525Z,26304.00
2018-05-04T09:32:20.544Z,25984.00
2018-05-04T09:33:20.562Z,26016.00
2018-05-04T09:34:20.582Z,26336.00
2018-05-04T09:35:20.600Z,26496.00
2018-05-04T09:36:20.619Z,26432.00
2018-05-04T09:37:20.648Z,26656.00
2018-05-04T09:38:20.657Z,27936.00
2018-05-04T09:39:20.676Z,28896.00
2018-05-04T09:40:20.696Z,29632.00
2018-05-04T09:41:20.716Z,29856.00
2018-05-04T09:42:20.735Z,31200.00
2018-05-04T09:43:20.819Z,34816.00
2018-05-04T09:44:20.774Z,38080.00
2018-05-04T09:45:20.791Z,36800.00
2018-05-04T09:46:20.811Z,41024.00
2018-05-04T09:47:20.828Z,39904.00
2018-05-04T09:48:20.848Z,39200.00
2018-05-04T09:49:20.868Z,38272.00
2018-05-04T09:50:20.891Z,35456.00
2018-05-04T09:51:20.905Z,32864.00
2018-05-04T09:52:20.924Z,32288.00
2018-05-04T09:53:20.945Z,31584.00
2018-05-04T09:54:20.965Z,31264.00
2018-05-04T09:55:20.980Z,31360.00
2018-05-04T09:56:21.000Z,29952.00
2018-05-04T09:57:21.018Z,28608.00
2018-05-04T09:58:21.037Z,28928.00
2018-05-04T09:59:21.055Z,29088.00
2018-05-04T10:00:21.074Z,28448.00
2018-05-04T10:01:21.093Z,27616.00
2018-05-04T10:02:21.112Z,27520.00
2018-05-04T10:03:21.129Z,26912.00
2018-05-04T10:04:21.149Z,26080.00
2018-05-04T10:05:21.167Z,25984.00
2018-05-04T10:06:21.187Z,26272.00
2018-05-04T10:07:21.207Z,26240.00
2018-05-04T10:08:21.224Z,25696.00
2018-05-04T10:09:21.242Z,25344.00
2018-05-04T10:10:21.262Z,25856.00
2018-05-04T10:11:21.279Z,26528.00
2018-05-04T10:12:21.297Z,26176.00
2018-05-04T10:13:21.317Z,25536.00
2018-05-04T10:14:21.335Z,25696.00
2018-05-04T10:15:21.358Z,26176.00
2018-05-04T10:16:21.371Z,26272.00
2018-05-04T10:17:21.391Z,26624.00
2018-05-04T10:18:21.408Z,26848.00
2018-05-04T10:19:21.425Z,26496.00
2018-05-04T10:20:21.444Z,25920.00
2018-05-04T10:21:21.462Z,27008.00
2018-05-04T10:22:21.481Z,28768.00
2018-05-04T10:23:21.497Z,28608.00
2018-05-04T10:24:21.515Z,29152.00
2018-05-04T10:25:21.536Z,29536.00
2018-05-04T10:26:21.551Z,29888.00
2018-05-04T10:27:21.568Z,31296.00
2018-05-04T10:28:21.585Z,34528.00
2018-05-04T10:29:21.607Z,38080.00
2018-05-04T10:30:21.621Z,40416.00
2018-05-04T10:31:21.682Z,43584.00
2018-05-04T10:32:21.653Z,48896.00
2018-05-04T10:33:21.672Z,54528.00
2018-05-04T10:34:21.689Z,58176.00
2018-05-04T10:35:21.708Z,62752.00
2018-05-04T10:36:21.723Z,64512.00
2018-05-04T10:37:21.738Z,56896.00
2018-05-04T10:38:21.823Z,47008.00
2018-05-04T10:39:21.773Z,40416.00
2018-05-04T10:40:21.790Z,34880.00
2018-05-04T10:41:21.807Z,31200.00
2018-05-04T10:42:21.824Z,28608.00
2018-05-04T10:43:21.840Z,26784.00
2018-05-04T10:44:21.857Z,25408.00
2018-05-04T10:45:21.877Z,23392.00
2018-05-04T10:46:21.890Z,20864.00
2018-05-04T10:47:21.906Z,18912.00
2018-05-04T10:48:21.922Z,16896.00
2018-05-04T10:49:21.939Z,15644.00
2018-05-04T10:50:21.954Z,15196.00
2018-05-04T10:51:21.970Z,14504.00
2018-05-04T10:52:21.986Z,13624.00
2018-05-04T10:53:22.002Z,13464.00
2018-05-04T10:54:22.019Z,13088.00
2018-05-04T10:55:22.033Z,12772.00
2018-05-04T10:56:22.048Z,12580.00
2018-05-04T10:57:22.066Z,12480.00
2018-05-04T10:58:22.081Z,12264.00
2018-05-04T10:59:22.097Z,12024.00
2018-05-04T11:00:22.111Z,11320.00
2018-05-04T11:01:22.128Z,11296.00
2018-05-04T11:02:22.143Z,10996.00
2018-05-04T11:03:22.157Z,9780.00
2018-05-04T11:04:22.173Z,8144.00
2018-05-04T11:05:22.197Z,8736.00
2018-05-04T11:06:22.208Z,7756.00
2018-05-04T11:07:22.218Z,7724.00
2018-05-04T11:08:22.233Z,7528.00
2018-05-04T11:09:22.249Z,7516.00
2018-05-04T11:10:22.262Z,7780.00
2018-05-04T11:11:22.276Z,7564.00
2018-05-04T11:12:22.290Z,7620.00
2018-05-04T11:13:22.303Z,7600.00
2018-05-04T11:14:22.317Z,7424.00
2018-05-04T11:15:22.329Z,7500.00
2018-05-04T11:16:22.342Z,7480.00
2018-05-04T11:17:22.355Z,7320.00
2018-05-04T11:18:22.370Z,7324.00
2018-05-04T11:19:22.396Z,7524.00
2018-05-04T11:20:22.394Z,7404.00
2018-05-04T11:21:22.405Z,7608.00
2018-05-04T11:22:22.418Z,7132.00
2018-05-04T11:23:22.429Z,7352.00
2018-05-04T11:24:22.459Z,7444.00
2018-05-04T11:25:22.521Z,7124.00
2018-05-04T11:26:22.462Z,6852.00
2018-05-04T11:27:22.472Z,7160.00
2018-05-04T11:28:22.486Z,7132.00
2018-05-04T11:29:22.498Z,6932.00
2018-05-04T11:30:22.509Z,6876.00
2018-05-04T11:31:22.520Z,6756.00
2018-05-04T11:32:22.530Z,6692.00
2018-05-04T11:33:22.540Z,6644.00
2018-05-04T11:34:22.550Z,6584.00
2018-05-04T11:35:22.559Z,6504.00
2018-05-04T11:36:22.571Z,6532.00
2018-05-04T11:37:22.581Z,6372.00
2018-05-04T11:38:22.591Z,6532.00
2018-05-04T11:39:22.600Z,6560.00
2018-05-04T11:40:22.610Z,6612.00
2018-05-04T11:41:22.620Z,6496.00
2018-05-04T11:42:22.631Z,6452.00
2018-05-04T11:43:22.644Z,6448.00
2018-05-04T11:44:22.650Z,6472.00
2018-05-04T11:45:22.669Z,6384.00
2018-05-04T11:46:22.673Z,6156.00
2018-05-04T11:47:22.680Z,6160.00
2018-05-04T11:48:22.690Z,6192.00
2018-05-04T11:49:22.697Z,6256.00
2018-05-04T11:50:22.706Z,6180.00
2018-05-04T11:51:22.716Z,6164.00
2018-05-04T11:52:22.725Z,6160.00
2018-05-04T11:53:22.734Z,6140.00
2018-05-04T11:54:22.744Z,6132.00
2018-05-04T11:55:22.751Z,6128.00
2018-05-04T11:56:22.767Z,6112.00
2018-05-04T11:57:22.768Z,6072.00
2018-05-04T11:58:22.778Z,6036.00
2018-05-04T11:59:22.786Z,5980.00
2018-05-04T12:00:22.795Z,5892.00
2018-05-04T12:01:22.804Z,5888.00
2018-05-04T12:02:22.840Z,5808.00
2018-05-04T12:03:22.821Z,5800.00
2018-05-04T12:04:22.830Z,5764.00
2018-05-04T12:05:22.838Z,5744.00
2018-05-04T12:06:22.845Z,5812.00
2018-05-04T12:07:22.857Z,5760.00
2018-05-04T12:08:22.862Z,5728.00
2018-05-04T12:09:22.870Z,5720.00
2018-05-04T12:10:22.880Z,5684.00
2018-05-04T12:11:22.887Z,5680.00
2018-05-04T12:12:22.896Z,5636.00
2018-05-04T12:13:22.904Z,5636.00
2018-05-04T12:14:22.915Z,5592.00
2018-05-04T12:15:22.922Z,5608.00
2018-05-04T12:16:22.993Z,5528.00
2018-05-04T12:17:22.934Z,5512.00
2018-05-04T12:18:22.943Z,5440.00
2018-05-04T12:19:22.951Z,5464.00
2018-05-04T12:20:22.959Z,5408.00
2018-05-04T12:21:22.971Z,5372.00
2018-05-04T12:22:22.974Z,5372.00
2018-05-04T12:23:22.980Z,5388.00
2018-05-04T12:24:22.989Z,5396.00
2018-05-04T12:25:22.999Z,5404.00
2018-05-04T12:26:23.005Z,5412.00
2018-05-04T12:27:23.014Z,5424.00
2018-05-04T12:28:23.021Z,5404.00
2018-05-04T12:29:23.028Z,5372.00
2018-05-04T12:30:23.038Z,5384.00
2018-05-04T12:31:23.044Z,5380.00
2018-05-04T12:32:23.052Z,5336.00
2018-05-04T12:33:23.062Z,5344.00
2018-05-04T12:34:23.072Z,5416.00
2018-05-04T12:35:23.075Z,5436.00
2018-05-04T12:36:23.085Z,5444.00
2018-05-04T12:37:23.093Z,5476.00
2018-05-04T12:38:23.099Z,5492.00
2018-05-04T12:39:23.108Z,5488.00
2018-05-04T12:40:23.115Z,5472.00
2018-05-04T12:41:23.122Z,5436.00
2018-05-04T12:42:23.128Z,5464.00
2018-05-04T12:43:23.135Z,5468.00
2018-05-04T12:44:23.143Z,5492.00
2018-05-04T12:45:23.153Z,5488.00
2018-05-04T12:46:23.159Z,5460.00
2018-05-04T12:47:23.168Z,5464.00
2018-05-04T12:48:23.175Z,5480.00
2018-05-04T12:49:23.180Z,5532.00
2018-05-04T12:50:23.189Z,5528.00
2018-05-04T12:51:23.197Z,5544.00
2018-05-04T12:52:23.206Z,5512.00
2018-05-04T12:53:23.218Z,5544.00
2018-05-04T12:54:23.219Z,5576.00
2018-05-04T12:55:23.226Z,5604.00
2018-05-04T12:56:23.238Z,5560.00
2018-05-04T12:57:23.242Z,5596.00
2018-05-04T12:58:23.248Z,5668.00
2018-05-04T12:59:23.255Z,5696.00
2018-05-04T13:00:23.265Z,5700.00
2018-05-04T13:01:23.268Z,5724.00
2018-05-04T13:02:23.276Z,5712.00
2018-05-04T13:03:23.285Z,5724.00
2018-05-04T13:04:23.336Z,5768.00
2018-05-04T13:05:23.298Z,5848.00
2018-05-04T13:06:23.306Z,5844.00
2018-05-04T13:07:23.312Z,5828.00
2018-05-04T13:08:23.320Z,5888.00
2018-05-04T13:09:23.328Z,5872.00
2018-05-04T13:10:23.335Z,5884.00
2018-05-04T13:11:23.341Z,6004.00
2018-05-04T13:12:23.348Z,5992.00
2018-05-04T13:13:23.356Z,5996.00
2018-05-04T13:14:23.364Z,6032.00
2018-05-04T13:15:23.372Z,6020.00
2018-05-04T13:16:23.378Z,6084.00
2018-05-04T13:17:23.386Z,6080.00
2018-05-04T13:18:23.393Z,6048.00
2018-05-04T13:19:23.399Z,6048.00
2018-05-04T13:20:23.408Z,6056.00
2018-05-04T13:21:23.416Z,6168.00
2018-05-04T13:22:23.422Z,6152.00
2018-05-04T13:23:23.463Z,6152.00
2018-05-04T13:24:23.437Z,6208.00
2018-05-04T13:25:23.444Z,6192.00
2018-05-04T13:26:23.455Z,6332.00
2018-05-04T13:27:23.458Z,6288.00
2018-05-04T13:28:23.466Z,6260.00
2018-05-04T13:29:23.474Z,6308.00
2018-05-04T13:30:23.481Z,6360.00
2018-05-04T13:31:23.488Z,6368.00
2018-05-04T13:32:23.496Z,6416.00
2018-05-04T13:33:23.604Z,6460.00
2018-05-04T13:34:23.512Z,6476.00
2018-05-04T13:35:23.517Z,6468.00
2018-05-04T13:36:23.525Z,6504.00
2018-05-04T13:37:23.533Z,6500.00
2018-05-04T13:38:23.541Z,6468.00
2018-05-04T13:39:23.547Z,6452.00
2018-05-04T13:40:23.555Z,6492.00
2018-05-04T13:41:23.561Z,6428.00
2018-05-04T13:42:23.570Z,6340.00
2018-05-04T13:43:23.576Z,6340.00
2018-05-04T13:44:23.587Z,6380.00
2018-05-04T13:45:23.593Z,6460.00
2018-05-04T13:46:23.599Z,6592.00
2018-05-04T13:47:23.606Z,6580.00
2018-05-04T13:48:23.614Z,6528.00
2018-05-04T13:49:23.623Z,6540.00
2018-05-04T13:50:23.630Z,6548.00
2018-05-04T13:51:23.743Z,6484.00
2018-05-04T13:52:23.645Z,6500.00
2018-05-04T13:53:23.652Z,6348.00
2018-05-04T13:54:23.660Z,6520.00
2018-05-04T13:55:23.671Z,6516.00
2018-05-04T13:56:23.676Z,6536.00
2018-05-04T13:57:23.687Z,6496.00
2018-05-04T13:58:23.692Z,6492.00
2018-05-04T13:59:23.699Z,6512.00
2018-05-04T14:00:23.707Z,6532.00
2018-05-04T14:01:23.716Z,6548.00
2018-05-04T14:02:23.723Z,6536.00
2018-05-04T14:03:23.732Z,6528.00
2018-05-04T14:04:23.739Z,6520.00
2018-05-04T14:05:23.747Z,6604.00
2018-05-04T14:06:23.755Z,6520.00
2018-05-04T14:07:23.761Z,6372.00
2018-05-04T14:08:23.771Z,6456.00
2018-05-04T14:09:23.778Z,6400.00
2018-05-04T14:10:23.786Z,6356.00
2018-05-04T14:11:23.793Z,6344.00
2018-05-04T14:12:23.804Z,6308.00
2018-05-04T14:13:23.809Z,6332.00
2018-05-04T14:14:23.818Z,6412.00
2018-05-04T14:15:23.825Z,6360.00
2018-05-04T14:16:23.833Z,6376.00
2018-05-04T14:17:23.842Z,6368.00
2018-05-04T14:18:23.849Z,6412.00
2018-05-04T14:19:23.857Z,6444.00
2018-05-04T14:20:23.864Z,6456.00
2018-05-04T14:21:23.871Z,6388.00
2018-05-04T14:22:23.881Z,6368.00
2018-05-04T14:23:23.888Z,6332.00
2018-05-04T14:24:23.896Z,6300.00
2018-05-04T14:25:23.908Z,6364.00
2018-05-04T14:26:23.913Z,6392.00
2018-05-04T14:27:23.921Z,6444.00
2018-05-04T14:28:23.929Z,6448.00
2018-05-04T14:29:23.936Z,6408.00
2018-05-04T14:30:23.945Z,6396.00
2018-05-04T14:31:23.953Z,6412.00
2018-05-04T14:32:23.960Z,6388.00
2018-05-04T14:33:23.969Z,6388.00
2018-05-04T14:34:23.978Z,6300.00
2018-05-04T14:35:23.985Z,6288.00
2018-05-04T14:36:23.993Z,6304.00
2018-05-04T14:37:24.001Z,6304.00
2018-05-04T14:38:24.009Z,6364.00
2018-05-04T14:39:24.018Z,6380.00
2018-05-04T14:40:24.025Z,6372.00
2018-05-04T14:41:24.034Z,6368.00
2018-05-04T14:42:24.043Z,6336.00
2018-05-04T14:43:24.050Z,6328.00
2018-05-04T14:44:24.060Z,6312.00
2018-05-04T14:45:24.066Z,6292.00
2018-05-04T14:46:24.075Z,6256.00
2018-05-04T14:47:24.083Z,6252.00
2018-05-04T14:48:24.091Z,6220.00
2018-05-04T14:49:24.100Z,6208.00
2018-05-04T14:50:24.109Z,6204.00
2018-05-04T14:51:24.129Z,6248.00
2018-05-04T14:52:24.125Z,6200.00
2018-05-04T14:53:24.145Z,6184.00
2018-05-04T14:54:24.142Z,6176.00
2018-05-04T14:55:24.150Z,6176.00
2018-05-04T14:56:24.159Z,6144.00
2018-05-04T14:57:24.168Z,6156.00
2018-05-04T14:58:24.178Z,6112.00
2018-05-04T14:59:24.183Z,6120.00
2018-05-04T15:00:24.191Z,6088.00
2018-05-04T15:01:24.199Z,6060.00
2018-05-04T15:02:24.208Z,6032.00
2018-05-04T15:03:24.216Z,6012.00
2018-05-04T15:04:24.228Z,5988.00
2018-05-04T15:05:24.234Z,5904.00
2018-05-04T15:06:24.243Z,5944.00
2018-05-04T15:07:24.251Z,5924.00
2018-05-04T15:08:24.259Z,5896.00
2018-05-04T15:09:24.270Z,5920.00
2018-05-04T15:10:24.277Z,5884.00
2018-05-04T15:11:24.285Z,5844.00
2018-05-04T15:12:24.293Z,5832.00
2018-05-04T15:13:24.302Z,5788.00
2018-05-04T15:14:24.310Z,5780.00
2018-05-04T15:15:24.320Z,5796.00
2018-05-04T15:16:24.331Z,5796.00
2018-05-04T15:17:24.335Z,5772.00
2018-05-04T15:18:24.344Z,5756.00
2018-05-04T15:19:24.351Z,5744.00
2018-05-04T15:20:24.360Z,5736.00
2018-05-04T15:21:24.372Z,5724.00
2018-05-04T15:22:24.379Z,5724.00
2018-05-04T15:23:24.389Z,5660.00
2018-05-04T15:24:24.395Z,5632.00
2018-05-04T15:25:24.402Z,5624.00
2018-05-04T15:26:24.411Z,5592.00
2018-05-04T15:27:24.419Z,5580.00
2018-05-04T15:28:24.427Z,5568.00
2018-05-04T15:29:24.435Z,5548.00
2018-05-04T15:30:24.444Z,5536.00
2018-05-04T15:31:24.453Z,5472.00
2018-05-04T15:32:24.461Z,5456.00
2018-05-04T15:33:24.473Z,5468.00
2018-05-04T15:34:24.477Z,5436.00
2018-05-04T15:35:24.484Z,5408.00
2018-05-04T15:36:24.493Z,5384.00
2018-05-04T15:37:24.501Z,5376.00
2018-05-04T15:38:24.511Z,5356.00
2018-05-04T15:39:24.516Z,5328.00
2018-05-04T15:40:24.601Z,5292.00
2018-05-04T15:41:24.535Z,5252.00
2018-05-04T15:42:24.543Z,5248.00
2018-05-04T15:43:24.549Z,5232.00
2018-05-04T15:44:24.558Z,5176.00
2018-05-04T15:45:24.567Z,5180.00
2018-05-04T15:46:24.579Z,5140.00
2018-05-04T15:47:24.586Z,5108.00
2018-05-04T15:48:24.595Z,5096.00
2018-05-04T15:49:24.602Z,5072.00
2018-05-04T15:50:24.608Z,5048.00
2018-05-04T15:51:24.619Z,5024.00
2018-05-04T15:52:24.625Z,5020.00
2018-05-04T15:53:24.633Z,5004.00
2018-05-04T15:54:24.642Z,4988.00
2018-05-04T15:55:24.654Z,4972.00
2018-05-04T15:56:24.657Z,4932.00
2018-05-04T15:57:24.666Z,4888.00
2018-05-04T15:58:24.674Z,4872.00
2018-05-04T15:59:24.681Z,4860.00
2018-05-04T16:00:24.691Z,4856.00
2018-05-04T16:01:24.698Z,4808.00
2018-05-04T16:02:24.709Z,4784.00
2018-05-04T16:03:24.715Z,4756.00
2018-05-04T16:04:24.727Z,4728.00
2018-05-04T16:05:24.732Z,4692.00
2018-05-04T16:06:24.740Z,4708.00
2018-05-04T16:07:24.747Z,4668.00
2018-05-04T16:08:24.760Z,4648.00
2018-05-04T16:09:24.764Z,4636.00
2018-05-04T16:10:24.773Z,4592.00
2018-05-04T16:11:24.779Z,4564.00
2018-05-04T16:12:24.789Z,4516.00
2018-05-04T16:13:24.798Z,4496.00
2018-05-04T16:14:24.805Z,4492.00
2018-05-04T16:15:24.813Z,4436.00
2018-05-04T16:16:24.820Z,4440.00
2018-05-04T16:17:24.829Z,4420.00
2018-05-04T16:18:24.838Z,4428.00
2018-05-04T16:19:24.850Z,4380.00
2018-05-04T16:20:24.855Z,4364.00
2018-05-04T16:21:24.862Z,4364.00
2018-05-04T16:22:24.869Z,4332.00
2018-05-04T16:23:24.876Z,4284.00
2018-05-04T16:24:24.885Z,4284.00
2018-05-04T16:25:24.896Z,4256.00
2018-05-04T16:26:24.901Z,4224.00
2018-05-04T16:27:24.908Z,4212.00
2018-05-04T16:28:24.919Z,4176.00
2018-05-04T16:29:24.925Z,4156.00
2018-05-04T16:30:24.933Z,4124.00
2018-05-04T16:31:24.939Z,4084.00
2018-05-04T16:32:24.948Z,4056.00
2018-05-04T16:33:24.956Z,4036.00
2018-05-04T16:34:24.965Z,4044.00
2018-05-04T16:35:24.973Z,4004.00
2018-05-04T16:36:24.982Z,3960.00
2018-05-04T16:37:24.987Z,3936.00
2018-05-04T16:38:24.996Z,3956.00
2018-05-04T16:39:25.009Z,3932.00
2018-05-04T16:40:25.011Z,3892.00
2018-05-04T16:41:25.020Z,3884.00
2018-05-04T16:42:25.027Z,3856.00
2018-05-04T16:43:25.035Z,3828.00
2018-05-04T16:44:25.046Z,3816.00
2018-05-04T16:45:25.051Z,3776.00
2018-05-04T16:46:25.058Z,3772.00
2018-05-04T16:47:25.066Z,3744.00
2018-05-04T16:48:25.074Z,3716.00
2018-05-04T16:49:25.085Z,3700.00
2018-05-04T16:50:25.092Z,3676.00
2018-05-04T16:51:25.097Z,3640.00
2018-05-04T16:52:25.105Z,3620.00
2018-05-04T16:53:25.113Z,3612.00
2018-05-04T16:54:25.121Z,3596.00
2018-05-04T16:55:25.130Z,3576.00
2018-05-04T16:56:25.137Z,3560.00
2018-05-04T16:57:25.145Z,3544.00
2018-05-04T16:58:25.152Z,3516.00
2018-05-04T16:59:25.159Z,3500.00
2018-05-04T17:00:25.167Z,3488.00
2018-05-04T17:01:25.175Z,3468.00
2018-05-04T17:02:25.184Z,3448.00
2018-05-04T17:03:25.190Z,3428.00
2018-05-04T17:04:25.198Z,3396.00
2018-05-04T17:05:25.206Z,3400.00
2018-05-04T17:06:25.214Z,3388.00
2018-05-04T17:07:25.220Z,3356.00
2018-05-04T17:08:25.229Z,3356.00
2018-05-04T17:09:25.237Z,3332.00
2018-05-04T17:10:25.245Z,3316.00
2018-05-04T17:11:25.252Z,3296.00
2018-05-04T17:12:25.258Z,3284.00
2018-05-04T17:13:25.267Z,3276.00
2018-05-04T17:14:25.275Z,3264.00
2018-05-04T17:15:25.281Z,3252.00
2018-05-04T17:16:25.290Z,3244.00
2018-05-04T17:17:25.297Z,3220.00
2018-05-04T17:18:25.305Z,3212.00
2018-05-04T17:19:25.312Z,3188.00
2018-05-04T17:20:25.319Z,3168.00
2018-05-04T17:21:25.329Z,3144.00
2018-05-04T17:22:25.334Z,3120.00
2018-05-04T17:23:25.341Z,3096.00
2018-05-04T17:24:25.349Z,3068.00
2018-05-04T17:25:25.364Z,3036.00
2018-05-04T17:26:25.364Z,3000.00
2018-05-04T17:27:25.373Z,2992.00
2018-05-04T17:28:25.379Z,2956.00
2018-05-04T17:29:25.391Z,2944.00
2018-05-04T17:30:25.393Z,2908.00
2018-05-04T17:31:25.399Z,2892.00
2018-05-04T17:32:25.408Z,2852.00
2018-05-04T17:33:25.415Z,2836.00
2018-05-04T17:34:25.423Z,2828.00
2018-05-04T17:35:25.430Z,2800.00
2018-05-04T17:36:25.438Z,2764.00
2018-05-04T17:37:25.445Z,2724.00
2018-05-04T17:38:25.453Z,2688.00
2018-05-04T17:39:25.459Z,2648.00
2018-05-04T17:40:25.560Z,2600.00
2018-05-04T17:41:25.474Z,2576.00
2018-05-04T17:42:25.480Z,2544.00
2018-05-04T17:43:25.488Z,2504.00
2018-05-04T17:44:25.511Z,2480.00
2018-05-04T17:45:25.503Z,2436.00
2018-05-04T17:46:25.511Z,2396.00
2018-05-04T17:47:25.530Z,2352.00
2018-05-04T17:48:25.529Z,2308.00
2018-05-04T17:49:25.533Z,2276.00
2018-05-04T17:50:25.540Z,2244.00
2018-05-04T17:51:25.546Z,2212.00
2018-05-04T17:52:25.554Z,2180.00
2018-05-04T17:53:25.561Z,2144.00
2018-05-04T17:54:25.569Z,2108.00
2018-05-04T17:55:25.575Z,2072.00
2018-05-04T17:56:25.583Z,2032.00
2018-05-04T17:57:25.590Z,1996.00
2018-05-04T17:58:25.601Z,1964.00
2018-05-04T17:59:25.604Z,1928.00
2018-05-04T18:00:25.611Z,1892.00
2018-05-04T18:01:25.675Z,1856.00
2018-05-04T18:02:25.626Z,1824.00
2018-05-04T18:03:25.632Z,1792.00
2018-05-04T18:04:25.640Z,1756.00
2018-05-04T18:05:25.647Z,1720.00
2018-05-04T18:06:25.654Z,1680.00
2018-05-04T18:07:25.660Z,1644.00
2018-05-04T18:08:25.667Z,1600.00
2018-05-04T18:09:25.674Z,1548.00
2018-05-04T18:10:25.682Z,1496.00
2018-05-04T18:11:25.695Z,1460.00
2018-05-04T18:12:25.695Z,1420.00
2018-05-04T18:13:25.703Z,1380.00
2018-05-04T18:14:25.717Z,1336.00
2018-05-04T18:15:25.719Z,1300.00
2018-05-04T18:16:25.724Z,1256.00
2018-05-04T18:17:25.761Z,1212.00
2018-05-04T18:18:25.739Z,1156.00
2018-05-04T18:19:25.743Z,1064.00
2018-05-04T18:20:25.751Z,968.00
2018-05-04T18:21:25.757Z,888.00
2018-05-04T18:22:25.763Z,812.00
2018-05-04T18:23:25.770Z,776.00
2018-05-04T18:24:25.779Z,748.00
2018-05-04T18:25:25.784Z,724.00
2018-05-04T18:26:25.791Z,704.00
2018-05-04T18:27:25.797Z,684.00
2018-05-04T18:28:25.804Z,668.00
2018-05-04T18:29:25.899Z,648.00
2018-05-04T18:30:25.817Z,628.00
2018-05-04T18:31:25.821Z,608.00
2018-05-04T18:32:25.829Z,584.00